Terminal Aerodrome Forecast
Issued by NWS

Home | Current Version | Previous Version | Text Only | Print | Product List | Glossary On
Versions: 1 2 3 4 5 6 7 8 9 10 11 12 13 14 15 16 17
681
FTUS42 KJAX 170631 AAB
TAFCRG
TAF AMD
KCRG 170631Z 1707/1806 00000KT 1/2SM FG SCT002 BKN250
      TEMPO 1707/1709 1/4SM FG VV002
     FM170900 00000KT 1/4SM FG VV002
     FM171330 00000KT 1SM BR BKN004
     FM171400 30006KT P6SM BKN100
     FM171900 30012KT P6SM SCT100 BKN250
     FM180100 31012KT P6SM SKC=

USA.gov is the U.S. government's official web portal to all federal, state and local government web resources and services.